sensor_id;sensor_type;location;lat;lon;timestamp;pressure;altitude;pressure_sealevel;temperature;humidity
6194;BME280;3130;41.564;23.280;2023-07-13T00:02:24;98998.00;;;25.90;53.38
6194;BME280;3130;41.564;23.280;2023-07-13T00:04:52;99002.25;;;25.91;53.24
6194;BME280;3130;41.564;23.280;2023-07-13T00:07:20;99000.63;;;25.90;53.56
6194;BME280;3130;41.564;23.280;2023-07-13T00:09:47;98995.53;;;25.88;53.69
6194;BME280;3130;41.564;23.280;2023-07-13T00:12:23;98997.91;;;25.83;54.06
6194;BME280;3130;41.564;23.280;2023-07-13T00:14:51;99000.19;;;25.72;54.57
6194;BME280;3130;41.564;23.280;2023-07-13T00:17:19;98972.88;;;25.52;55.19
6194;BME280;3130;41.564;23.280;2023-07-13T00:19:46;98990.69;;;25.56;55.45
6194;BME280;3130;41.564;23.280;2023-07-13T00:22:14;98929.53;;;25.13;55.91
6194;BME280;3130;41.564;23.280;2023-07-13T00:24:41;98967.28;;;25.26;56.15
6194;BME280;3130;41.564;23.280;2023-07-13T00:27:08;98988.44;;;25.39;56.66
6194;BME280;3130;41.564;23.280;2023-07-13T00:29:36;98978.50;;;25.35;56.95
6194;BME280;3130;41.564;23.280;2023-07-13T00:32:04;98964.56;;;25.20;56.96
6194;BME280;3130;41.564;23.280;2023-07-13T00:34:33;98977.53;;;25.21;56.90
6194;BME280;3130;41.564;23.280;2023-07-13T00:37:00;98974.28;;;25.19;57.13
6194;BME280;3130;41.564;23.280;2023-07-13T00:39:28;98971.16;;;25.16;57.37
6194;BME280;3130;41.564;23.280;2023-07-13T00:41:55;98965.44;;;25.12;57.30
6194;BME280;3130;41.564;23.280;2023-07-13T00:44:22;98954.41;;;25.02;57.46
6194;BME280;3130;41.564;23.280;2023-07-13T00:46:49;98970.44;;;25.22;57.29
6194;BME280;3130;41.564;23.280;2023-07-13T00:49:20;98976.06;;;25.19;57.16
6194;BME280;3130;41.564;23.280;2023-07-13T00:51:52;98970.09;;;25.25;56.64
6194;BME280;3130;41.564;23.280;2023-07-13T00:54:23;98960.38;;;25.11;56.80
6194;BME280;3130;41.564;23.280;2023-07-13T00:56:53;98859.00;;;24.38;57.12
6194;BME280;3130;41.564;23.280;2023-07-13T00:59:22;98983.66;;;25.14;57.05
6194;BME280;3130;41.564;23.280;2023-07-13T01:01:51;98977.69;;;25.20;56.88
6194;BME280;3130;41.564;23.280;2023-07-13T01:04:18;98974.78;;;25.15;56.76
6194;BME280;3130;41.564;23.280;2023-07-13T01:06:46;98982.88;;;25.13;56.42
6194;BME280;3130;41.564;23.280;2023-07-13T01:09:15;98977.13;;;25.10;55.95
6194;BME280;3130;41.564;23.280;2023-07-13T01:11:43;98972.16;;;25.15;55.49
6194;BME280;3130;41.564;23.280;2023-07-13T01:14:12;98977.41;;;25.15;55.77
6194;BME280;3130;41.564;23.280;2023-07-13T01:16:40;98981.19;;;25.12;55.33
6194;BME280;3130;41.564;23.280;2023-07-13T01:19:17;98980.56;;;25.10;55.59
6194;BME280;3130;41.564;23.280;2023-07-13T01:21:52;98962.28;;;25.02;55.82
6194;BME280;3130;41.564;23.280;2023-07-13T01:24:19;98954.84;;;24.91;56.02
6194;BME280;3130;41.564;23.280;2023-07-13T01:26:46;98977.13;;;25.10;55.49
6194;BME280;3130;41.564;23.280;2023-07-13T01:29:14;98969.34;;;25.02;55.14
6194;BME280;3130;41.564;23.280;2023-07-13T01:31:41;98950.59;;;24.90;55.53
6194;BME280;3130;41.564;23.280;2023-07-13T01:34:10;98973.59;;;25.03;55.27
6194;BME280;3130;41.564;23.280;2023-07-13T01:36:37;98971.69;;;24.97;55.48
6194;BME280;3130;41.564;23.280;2023-07-13T01:39:06;98972.44;;;24.91;55.58
6194;BME280;3130;41.564;23.280;2023-07-13T01:41:33;98972.22;;;24.92;55.74
6194;BME280;3130;41.564;23.280;2023-07-13T01:44:00;98849.56;;;24.14;55.90
6194;BME280;3130;41.564;23.280;2023-07-13T01:46:27;98974.56;;;24.87;56.09
6194;BME280;3130;41.564;23.280;2023-07-13T01:48:54;98980.72;;;24.80;56.54
6194;BME280;3130;41.564;23.280;2023-07-13T01:51:22;98977.66;;;24.76;56.99
6194;BME280;3130;41.564;23.280;2023-07-13T01:53:49;98977.91;;;24.67;57.20
6194;BME280;3130;41.564;23.280;2023-07-13T01:56:18;98981.16;;;24.69;57.35
6194;BME280;3130;41.564;23.280;2023-07-13T01:58:45;98963.59;;;24.55;57.49
6194;BME280;3130;41.564;23.280;2023-07-13T02:01:12;98819.06;;;23.62;57.01
6194;BME280;3130;41.564;23.280;2023-07-13T02:03:40;98981.06;;;24.62;56.98
6194;BME280;3130;41.564;23.280;2023-07-13T02:06:07;98909.75;;;24.08;56.94
6194;BME280;3130;41.564;23.280;2023-07-13T02:08:34;98983.84;;;24.61;57.19
6194;BME280;3130;41.564;23.280;2023-07-13T02:11:02;98848.22;;;23.81;56.85
6194;BME280;3130;41.564;23.280;2023-07-13T02:13:31;98897.63;;;24.07;56.84
6194;BME280;3130;41.564;23.280;2023-07-13T02:15:58;98975.38;;;24.59;57.21
6194;BME280;3130;41.564;23.280;2023-07-13T02:18:26;98983.34;;;24.65;56.97
6194;BME280;3130;41.564;23.280;2023-07-13T02:20:53;98978.44;;;24.62;57.01
6194;BME280;3130;41.564;23.280;2023-07-13T02:23:20;98961.31;;;24.52;57.38
6194;BME280;3130;41.564;23.280;2023-07-13T02:25:47;98983.16;;;24.67;57.30
6194;BME280;3130;41.564;23.280;2023-07-13T02:28:14;98970.13;;;24.59;57.46
6194;BME280;3130;41.564;23.280;2023-07-13T02:30:43;98878.34;;;23.85;57.72
6194;BME280;3130;41.564;23.280;2023-07-13T02:33:10;98987.56;;;24.52;58.05
6194;BME280;3130;41.564;23.280;2023-07-13T02:35:38;98989.63;;;24.56;57.79
6194;BME280;3130;41.564;23.280;2023-07-13T02:38:05;98996.44;;;24.43;58.56
6194;BME280;3130;41.564;23.280;2023-07-13T02:40:32;98996.97;;;24.39;58.49
6194;BME280;3130;41.564;23.280;2023-07-13T02:43:01;99000.13;;;24.34;58.79
6194;BME280;3130;41.564;23.280;2023-07-13T02:45:28;98992.81;;;24.30;58.51
6194;BME280;3130;41.564;23.280;2023-07-13T02:47:57;98979.28;;;24.18;58.94
6194;BME280;3130;41.564;23.280;2023-07-13T02:50:24;99008.44;;;24.38;58.63
6194;BME280;3130;41.564;23.280;2023-07-13T02:52:51;99008.19;;;24.33;58.94
6194;BME280;3130;41.564;23.280;2023-07-13T02:55:18;99004.31;;;24.43;58.79
6194;BME280;3130;41.564;23.280;2023-07-13T02:57:45;99008.25;;;24.47;58.73
6194;BME280;3130;41.564;23.280;2023-07-13T03:00:13;99005.13;;;24.44;59.03
6194;BME280;3130;41.564;23.280;2023-07-13T03:02:42;99009.06;;;24.48;58.62
6194;BME280;3130;41.564;23.280;2023-07-13T03:05:10;99013.81;;;24.44;58.60
6194;BME280;3130;41.564;23.280;2023-07-13T03:07:38;99013.69;;;24.15;59.91
6194;BME280;3130;41.564;23.280;2023-07-13T03:10:06;99011.63;;;23.72;61.79
6194;BME280;3130;41.564;23.280;2023-07-13T03:12:33;99014.31;;;23.56;62.54
6194;BME280;3130;41.564;23.280;2023-07-13T03:15:01;98997.91;;;23.32;63.41
6194;BME280;3130;41.564;23.280;2023-07-13T03:17:28;98993.44;;;23.10;63.75
6194;BME280;3130;41.564;23.280;2023-07-13T03:19:55;98922.72;;;22.64;63.94
6194;BME280;3130;41.564;23.280;2023-07-13T03:22:24;98894.47;;;22.43;64.43
6194;BME280;3130;41.564;23.280;2023-07-13T03:24:51;99014.19;;;23.12;64.68
6194;BME280;3130;41.564;23.280;2023-07-13T03:27:18;99015.16;;;23.11;65.03
6194;BME280;3130;41.564;23.280;2023-07-13T03:29:45;99010.22;;;23.24;64.77
6194;BME280;3130;41.564;23.280;2023-07-13T03:32:12;99015.75;;;23.37;65.19
6194;BME280;3130;41.564;23.280;2023-07-13T03:34:39;99021.19;;;23.19;65.98
6194;BME280;3130;41.564;23.280;2023-07-13T03:37:06;99000.16;;;22.81;67.34
6194;BME280;3130;41.564;23.280;2023-07-13T03:39:35;99024.34;;;22.75;67.43
6194;BME280;3130;41.564;23.280;2023-07-13T03:42:02;98957.53;;;22.40;67.55
6194;BME280;3130;41.564;23.280;2023-07-13T03:44:29;98999.53;;;22.55;67.39
6194;BME280;3130;41.564;23.280;2023-07-13T03:46:56;98960.81;;;22.42;67.38
6194;BME280;3130;41.564;23.280;2023-07-13T03:49:23;99018.66;;;22.71;67.56
6194;BME280;3130;41.564;23.280;2023-07-13T03:51:50;99034.66;;;22.68;68.14
6194;BME280;3130;41.564;23.280;2023-07-13T03:54:17;98946.09;;;22.02;68.81
6194;BME280;3130;41.564;23.280;2023-07-13T03:56:46;99036.63;;;22.66;68.47
6194;BME280;3130;41.564;23.280;2023-07-13T03:59:13;99041.34;;;22.71;68.36
6194;BME280;3130;41.564;23.280;2023-07-13T04:01:40;99037.75;;;22.72;68.23
6194;BME280;3130;41.564;23.280;2023-07-13T04:04:07;99004.59;;;22.56;68.36
6194;BME280;3130;41.564;23.280;2023-07-13T04:06:34;99040.53;;;22.78;68.34
6194;BME280;3130;41.564;23.280;2023-07-13T04:09:03;98939.22;;;22.25;68.30
6194;BME280;3130;41.564;23.280;2023-07-13T04:11:32;99035.13;;;22.88;68.51
6194;BME280;3130;41.564;23.280;2023-07-13T04:14:01;99029.88;;;22.88;68.48
6194;BME280;3130;41.564;23.280;2023-07-13T04:16:28;99040.19;;;22.89;68.24
6194;BME280;3130;41.564;23.280;2023-07-13T04:18:56;99040.50;;;22.94;68.67
6194;BME280;3130;41.564;23.280;2023-07-13T04:21:25;99012.56;;;22.87;68.35
6194;BME280;3130;41.564;23.280;2023-07-13T04:23:53;99000.78;;;22.91;68.49
6194;BME280;3130;41.564;23.280;2023-07-13T04:26:20;99040.78;;;23.31;67.29
6194;BME280;3130;41.564;23.280;2023-07-13T04:28:48;99020.34;;;23.27;66.67
6194;BME280;3130;41.564;23.280;2023-07-13T04:31:17;98970.34;;;23.14;66.52
6194;BME280;3130;41.564;23.280;2023-07-13T04:33:44;99036.72;;;23.67;66.14
6194;BME280;3130;41.564;23.280;2023-07-13T04:36:11;99035.84;;;23.82;65.93
6194;BME280;3130;41.564;23.280;2023-07-13T04:38:38;99044.38;;;24.07;65.25
6194;BME280;3130;41.564;23.280;2023-07-13T04:41:07;99053.34;;;24.12;64.91
6194;BME280;3130;41.564;23.280;2023-07-13T04:43:35;99046.75;;;24.24;64.44
6194;BME280;3130;41.564;23.280;2023-07-13T04:46:04;99053.03;;;24.38;64.52
6194;BME280;3130;41.564;23.280;2023-07-13T04:48:33;99043.97;;;24.48;63.33
6194;BME280;3130;41.564;23.280;2023-07-13T04:51:01;99055.31;;;24.63;62.91
6194;BME280;3130;41.564;23.280;2023-07-13T04:53:28;99060.81;;;24.76;62.81
6194;BME280;3130;41.564;23.280;2023-07-13T04:55:56;98909.78;;;24.00;62.65
6194;BME280;3130;41.564;23.280;2023-07-13T04:58:24;99054.31;;;25.01;62.83
6194;BME280;3130;41.564;23.280;2023-07-13T05:00:51;99054.41;;;25.07;63.93
6194;BME280;3130;41.564;23.280;2023-07-13T05:03:18;98967.25;;;24.68;62.90
6194;BME280;3130;41.564;23.280;2023-07-13T05:05:56;99054.22;;;25.31;61.60
6194;BME280;3130;41.564;23.280;2023-07-13T05:08:23;99058.75;;;25.37;60.33
6194;BME280;3130;41.564;23.280;2023-07-13T05:10:50;99062.09;;;25.46;59.04
6194;BME280;3130;41.564;23.280;2023-07-13T05:13:18;99063.63;;;25.54;58.40
6194;BME280;3130;41.564;23.280;2023-07-13T05:15:45;99062.97;;;25.67;57.95
6194;BME280;3130;41.564;23.280;2023-07-13T05:18:12;99061.63;;;25.71;58.75
6194;BME280;3130;41.564;23.280;2023-07-13T05:20:39;99055.28;;;25.80;57.88
6194;BME280;3130;41.564;23.280;2023-07-13T05:23:08;98930.69;;;25.10;55.72
6194;BME280;3130;41.564;23.280;2023-07-13T05:25:35;99042.56;;;25.83;57.69
6194;BME280;3130;41.564;23.280;2023-07-13T05:28:02;99038.13;;;25.98;55.87
6194;BME280;3130;41.564;23.280;2023-07-13T05:30:29;99059.72;;;26.15;56.01
6194;BME280;3130;41.564;23.280;2023-07-13T05:32:56;99038.19;;;26.05;53.33
6194;BME280;3130;41.564;23.280;2023-07-13T05:35:23;99063.25;;;26.22;53.60
6194;BME280;3130;41.564;23.280;2023-07-13T05:37:50;99054.00;;;26.26;53.51
6194;BME280;3130;41.564;23.280;2023-07-13T05:40:18;99068.16;;;26.46;53.22
6194;BME280;3130;41.564;23.280;2023-07-13T05:42:45;99035.06;;;26.37;52.84
6194;BME280;3130;41.564;23.280;2023-07-13T05:45:13;99042.13;;;26.51;52.70
6194;BME280;3130;41.564;23.280;2023-07-13T05:47:40;99034.84;;;26.53;53.10
6194;BME280;3130;41.564;23.280;2023-07-13T05:50:07;99037.53;;;26.59;53.06
6194;BME280;3130;41.564;23.280;2023-07-13T05:52:34;99062.41;;;26.77;53.70
6194;BME280;3130;41.564;23.280;2023-07-13T05:55:01;99064.47;;;26.82;53.50
6194;BME280;3130;41.564;23.280;2023-07-13T05:57:30;99010.69;;;26.43;53.08
6194;BME280;3130;41.564;23.280;2023-07-13T05:59:57;99063.88;;;26.86;53.81
6194;BME280;3130;41.564;23.280;2023-07-13T06:02:24;99014.47;;;26.61;53.34
6194;BME280;3130;41.564;23.280;2023-07-13T06:04:52;99062.28;;;27.13;52.73
6194;BME280;3130;41.564;23.280;2023-07-13T06:07:19;99061.81;;;27.30;51.71
6194;BME280;3130;41.564;23.280;2023-07-13T06:09:46;99054.72;;;27.31;51.60
6194;BME280;3130;41.564;23.280;2023-07-13T06:12:13;99065.78;;;27.54;50.54
6194;BME280;3130;41.564;23.280;2023-07-13T06:14:42;99062.25;;;27.74;50.41
6194;BME280;3130;41.564;23.280;2023-07-13T06:17:09;99050.72;;;27.75;49.69
6194;BME280;3130;41.564;23.280;2023-07-13T06:19:36;99059.28;;;27.90;49.99
6194;BME280;3130;41.564;23.280;2023-07-13T06:22:04;98985.34;;;27.64;48.75
6194;BME280;3130;41.564;23.280;2023-07-13T06:24:31;98988.47;;;27.80;48.28
6194;BME280;3130;41.564;23.280;2023-07-13T06:26:58;99063.31;;;28.33;48.53
6194;BME280;3130;41.564;23.280;2023-07-13T06:29:25;98976.94;;;27.94;48.16
6194;BME280;3130;41.564;23.280;2023-07-13T06:31:54;98962.16;;;28.00;47.50
6194;BME280;3130;41.564;23.280;2023-07-13T06:34:21;98948.75;;;27.95;47.27
6194;BME280;3130;41.564;23.280;2023-07-13T06:36:48;99056.63;;;28.82;47.57
6194;BME280;3130;41.564;23.280;2023-07-13T06:39:15;99054.00;;;28.82;47.04
6194;BME280;3130;41.564;23.280;2023-07-13T06:41:42;99043.66;;;28.74;46.92
6194;BME280;3130;41.564;23.280;2023-07-13T06:44:09;99060.53;;;29.05;46.43
6194;BME280;3130;41.564;23.280;2023-07-13T06:46:36;98944.16;;;28.55;45.31
6194;BME280;3130;41.564;23.280;2023-07-13T06:49:04;99047.25;;;29.31;44.64
6194;BME280;3130;41.564;23.280;2023-07-13T06:51:31;99057.63;;;29.46;44.68
6194;BME280;3130;41.564;23.280;2023-07-13T06:53:59;99035.84;;;29.50;45.14
6194;BME280;3130;41.564;23.280;2023-07-13T06:56:26;99057.34;;;29.73;44.51
6194;BME280;3130;41.564;23.280;2023-07-13T06:58:53;99056.22;;;29.93;44.29
6194;BME280;3130;41.564;23.280;2023-07-13T07:01:20;99054.56;;;30.12;44.17
6194;BME280;3130;41.564;23.280;2023-07-13T07:03:47;98997.22;;;29.93;43.86
6194;BME280;3130;41.564;23.280;2023-07-13T07:06:18;99053.31;;;30.45;44.40
6194;BME280;3130;41.564;23.280;2023-07-13T07:08:45;99042.44;;;30.60;43.07
6194;BME280;3130;41.564;23.280;2023-07-13T07:11:14;99044.78;;;30.74;42.65
6194;BME280;3130;41.564;23.280;2023-07-13T07:13:41;99048.66;;;30.96;42.05
6194;BME280;3130;41.564;23.280;2023-07-13T07:16:08;99009.34;;;30.93;41.71
6194;BME280;3130;41.564;23.280;2023-07-13T07:18:36;99037.59;;;31.23;40.94
6194;BME280;3130;41.564;23.280;2023-07-13T07:21:03;99040.66;;;31.45;40.18
6194;BME280;3130;41.564;23.280;2023-07-13T07:23:32;99037.09;;;31.51;40.30
6194;BME280;3130;41.564;23.280;2023-07-13T07:25:59;99039.19;;;31.67;39.83
6194;BME280;3130;41.564;23.280;2023-07-13T07:28:26;99019.41;;;31.81;39.07
6194;BME280;3130;41.564;23.280;2023-07-13T07:30:54;99034.66;;;32.03;38.48
6194;BME280;3130;41.564;23.280;2023-07-13T07:33:22;99038.19;;;32.15;38.46
6194;BME280;3130;41.564;23.280;2023-07-13T07:35:49;99041.09;;;32.25;38.13
6194;BME280;3130;41.564;23.280;2023-07-13T07:38:16;99037.53;;;32.31;37.96
6194;BME280;3130;41.564;23.280;2023-07-13T07:40:45;99039.53;;;32.47;36.48
6194;BME280;3130;41.564;23.280;2023-07-13T07:43:12;99028.28;;;32.33;36.72
6194;BME280;3130;41.564;23.280;2023-07-13T07:45:40;98972.91;;;32.07;36.95
6194;BME280;3130;41.564;23.280;2023-07-13T07:48:07;99041.47;;;32.81;35.60
6194;BME280;3130;41.564;23.280;2023-07-13T07:50:35;99036.41;;;33.02;35.23
6194;BME280;3130;41.564;23.280;2023-07-13T07:53:02;99043.25;;;33.09;35.38
6194;BME280;3130;41.564;23.280;2023-07-13T07:55:33;99025.00;;;33.13;34.85
6194;BME280;3130;41.564;23.280;2023-07-13T07:58:02;99044.25;;;33.54;34.90
6194;BME280;3130;41.564;23.280;2023-07-13T08:00:29;99042.94;;;33.57;33.30
6194;BME280;3130;41.564;23.280;2023-07-13T08:02:57;99030.63;;;33.90;32.91
6194;BME280;3130;41.564;23.280;2023-07-13T08:05:24;99045.03;;;34.78;31.38
6194;BME280;3130;41.564;23.280;2023-07-13T08:07:52;99038.19;;;36.48;29.19
6194;BME280;3130;41.564;23.280;2023-07-13T08:10:19;99025.28;;;39.10;26.62
6194;BME280;3130;41.564;23.280;2023-07-13T08:12:46;99026.47;;;41.67;23.10
6194;BME280;3130;41.564;23.280;2023-07-13T08:15:16;99005.38;;;43.38;20.94
6194;BME280;3130;41.564;23.280;2023-07-13T08:17:43;98961.97;;;43.21;20.26
6194;BME280;3130;41.564;23.280;2023-07-13T08:20:11;99035.97;;;42.43;21.54
6194;BME280;3130;41.564;23.280;2023-07-13T08:22:38;99027.22;;;40.36;23.93
6194;BME280;3130;41.564;23.280;2023-07-13T08:25:05;99020.22;;;38.88;26.12
6194;BME280;3130;41.564;23.280;2023-07-13T08:27:33;99017.72;;;38.07;27.24
6194;BME280;3130;41.564;23.280;2023-07-13T08:30:00;98997.94;;;37.37;28.70
6194;BME280;3130;41.564;23.280;2023-07-13T08:32:29;99009.09;;;36.88;28.56
6194;BME280;3130;41.564;23.280;2023-07-13T08:34:56;99008.00;;;36.47;29.73
6194;BME280;3130;41.564;23.280;2023-07-13T08:37:24;99008.50;;;36.18;30.17
6194;BME280;3130;41.564;23.280;2023-07-13T08:39:51;99010.16;;;35.76;30.92
6194;BME280;3130;41.564;23.280;2023-07-13T08:42:27;98892.41;;;34.87;31.07
6194;BME280;3130;41.564;23.280;2023-07-13T08:45:13;99010.91;;;35.72;32.15
6194;BME280;3130;41.564;23.280;2023-07-13T08:47:47;99010.59;;;35.68;32.05
6194;BME280;3130;41.564;23.280;2023-07-13T08:50:18;99001.94;;;35.56;32.34
6194;BME280;3130;41.564;23.280;2023-07-13T08:52:46;98998.13;;;35.52;32.11
6194;BME280;3130;41.564;23.280;2023-07-13T08:55:16;98982.59;;;35.49;32.24
6194;BME280;3130;41.564;23.280;2023-07-13T08:57:48;98996.41;;;35.63;31.99
6194;BME280;3130;41.564;23.280;2023-07-13T09:00:18;98965.22;;;35.47;31.59
6194;BME280;3130;41.564;23.280;2023-07-13T09:02:52;98968.59;;;35.59;31.35
6194;BME280;3130;41.564;23.280;2023-07-13T09:05:25;98970.31;;;35.70;31.51
6194;BME280;3130;41.564;23.280;2023-07-13T09:08:26;98990.22;;;35.84;31.35
6194;BME280;3130;41.564;23.280;2023-07-13T09:11:01;98979.03;;;35.87;30.79
6194;BME280;3130;41.564;23.280;2023-07-13T09:13:42;98913.13;;;35.44;31.30
6194;BME280;3130;41.564;23.280;2023-07-13T09:16:10;98972.28;;;36.01;31.09
6194;BME280;3130;41.564;23.280;2023-07-13T09:18:42;98973.72;;;36.13;31.32
6194;BME280;3130;41.564;23.280;2023-07-13T09:21:13;98968.31;;;36.34;30.73
6194;BME280;3130;41.564;23.280;2023-07-13T09:23:41;98965.16;;;36.42;31.31
6194;BME280;3130;41.564;23.280;2023-07-13T09:26:12;98915.19;;;36.12;30.42
6194;BME280;3130;41.564;23.280;2023-07-13T09:28:42;98947.81;;;36.45;30.62
6194;BME280;3130;41.564;23.280;2023-07-13T09:31:14;98947.91;;;36.55;30.29
6194;BME280;3130;41.564;23.280;2023-07-13T09:33:43;98886.94;;;36.21;29.76
6194;BME280;3130;41.564;23.280;2023-07-13T09:36:19;98936.44;;;36.59;29.69
6194;BME280;3130;41.564;23.280;2023-07-13T09:38:48;98931.13;;;36.64;29.06
6194;BME280;3130;41.564;23.280;2023-07-13T09:41:23;98944.78;;;36.68;29.21
6194;BME280;3130;41.564;23.280;2023-07-13T09:44:11;98941.00;;;36.64;28.88
6194;BME280;3130;41.564;23.280;2023-07-13T09:46:43;98941.31;;;36.72;29.16
6194;BME280;3130;41.564;23.280;2023-07-13T09:49:12;98938.41;;;36.74;28.81
6194;BME280;3130;41.564;23.280;2023-07-13T09:51:41;98941.34;;;36.77;29.38
6194;BME280;3130;41.564;23.280;2023-07-13T09:54:18;98937.16;;;36.91;28.87
6194;BME280;3130;41.564;23.280;2023-07-13T09:56:46;98833.50;;;36.21;29.51
6194;BME280;3130;41.564;23.280;2023-07-13T09:59:24;98930.44;;;36.84;29.81
6194;BME280;3130;41.564;23.280;2023-07-13T10:01:51;98930.81;;;36.97;29.31
6194;BME280;3130;41.564;23.280;2023-07-13T10:04:26;98930.06;;;37.07;29.07
6194;BME280;3130;41.564;23.280;2023-07-13T10:07:05;98926.34;;;37.18;29.56
6194;BME280;3130;41.564;23.280;2023-07-13T10:09:32;98920.50;;;37.26;28.78
6194;BME280;3130;41.564;23.280;2023-07-13T10:12:00;98918.09;;;37.24;29.35
6194;BME280;3130;41.564;23.280;2023-07-13T10:14:27;98813.50;;;36.69;28.98
6194;BME280;3130;41.564;23.280;2023-07-13T10:16:59;98886.16;;;37.03;28.41
6194;BME280;3130;41.564;23.280;2023-07-13T10:19:31;98901.50;;;37.27;28.40
6194;BME280;3130;41.564;23.280;2023-07-13T10:22:01;98859.94;;;37.05;28.64
6194;BME280;3130;41.564;23.280;2023-07-13T10:24:32;98891.63;;;37.33;28.15
6194;BME280;3130;41.564;23.280;2023-07-13T10:27:03;98885.53;;;37.52;27.11
6194;BME280;3130;41.564;23.280;2023-07-13T10:29:36;98880.44;;;37.55;26.64
6194;BME280;3130;41.564;23.280;2023-07-13T10:32:09;98875.09;;;37.55;26.08
6194;BME280;3130;41.564;23.280;2023-07-13T10:34:38;98875.34;;;37.49;27.23
6194;BME280;3130;41.564;23.280;2023-07-13T10:37:07;98870.56;;;37.56;26.16
6194;BME280;3130;41.564;23.280;2023-07-13T10:39:43;98828.16;;;37.28;26.36
6194;BME280;3130;41.564;23.280;2023-07-13T10:42:25;98875.66;;;37.62;26.85
6194;BME280;3130;41.564;23.280;2023-07-13T10:44:53;98784.53;;;37.28;25.53
6194;BME280;3130;41.564;23.280;2023-07-13T10:47:21;98867.09;;;37.80;24.74
6194;BME280;3130;41.564;23.280;2023-07-13T10:49:54;98804.94;;;37.43;24.84
6194;BME280;3130;41.564;23.280;2023-07-13T10:52:42;98860.72;;;37.86;24.71
6194;BME280;3130;41.564;23.280;2023-07-13T10:55:31;98851.84;;;37.96;25.24
6194;BME280;3130;41.564;23.280;2023-07-13T10:58:01;98860.97;;;38.05;23.98
6194;BME280;3130;41.564;23.280;2023-07-13T11:00:31;98845.97;;;37.99;23.14
6194;BME280;3130;41.564;23.280;2023-07-13T11:03:00;98863.38;;;38.06;22.64
6194;BME280;3130;41.564;23.280;2023-07-13T11:05:32;98803.09;;;37.84;22.66
6194;BME280;3130;41.564;23.280;2023-07-13T11:08:16;98810.34;;;38.03;23.43
6194;BME280;3130;41.564;23.280;2023-07-13T11:10:49;98855.34;;;38.26;21.80
6194;BME280;3130;41.564;23.280;2023-07-13T11:13:39;98851.06;;;38.15;23.95
6194;BME280;3130;41.564;23.280;2023-07-13T11:16:50;98833.38;;;38.14;24.72
6194;BME280;3130;41.564;23.280;2023-07-13T11:19:50;98844.09;;;38.34;24.78
6194;BME280;3130;41.564;23.280;2023-07-13T11:22:25;98838.44;;;38.36;24.92
6194;BME280;3130;41.564;23.280;2023-07-13T11:24:58;98835.47;;;38.47;23.71
6194;BME280;3130;41.564;23.280;2023-07-13T11:27:38;98832.75;;;38.57;23.58
6194;BME280;3130;41.564;23.280;2023-07-13T11:30:25;98832.19;;;38.65;23.55
6194;BME280;3130;41.564;23.280;2023-07-13T11:33:11;98833.53;;;38.72;23.52
6194;BME280;3130;41.564;23.280;2023-07-13T11:35:50;98818.22;;;38.78;23.29
6194;BME280;3130;41.564;23.280;2023-07-13T11:38:21;98823.88;;;38.81;24.04
6194;BME280;3130;41.564;23.280;2023-07-13T11:40:51;98795.97;;;38.72;23.38
6194;BME280;3130;41.564;23.280;2023-07-13T11:43:26;98768.91;;;38.64;23.39
6194;BME280;3130;41.564;23.280;2023-07-13T11:45:53;98804.31;;;38.71;23.87
6194;BME280;3130;41.564;23.280;2023-07-13T11:48:26;98798.94;;;38.66;23.51
6194;BME280;3130;41.564;23.280;2023-07-13T11:50:56;98748.88;;;38.42;23.10
6194;BME280;3130;41.564;23.280;2023-07-13T11:53:29;98798.38;;;38.79;23.69
6194;BME280;3130;41.564;23.280;2023-07-13T11:55:58;98808.59;;;38.72;23.43
6194;BME280;3130;41.564;23.280;2023-07-13T11:58:27;98798.66;;;38.72;23.64
6194;BME280;3130;41.564;23.280;2023-07-13T12:00:58;98794.38;;;38.71;23.36
6194;BME280;3130;41.564;23.280;2023-07-13T12:03:27;98797.84;;;38.67;23.49
6194;BME280;3130;41.564;23.280;2023-07-13T12:05:59;98784.69;;;38.80;22.93
6194;BME280;3130;41.564;23.280;2023-07-13T12:08:29;98781.19;;;38.80;21.37
6194;BME280;3130;41.564;23.280;2023-07-13T12:10:58;98753.94;;;38.53;22.17
6194;BME280;3130;41.564;23.280;2023-07-13T12:13:27;98785.00;;;38.74;22.96
6194;BME280;3130;41.564;23.280;2023-07-13T12:15:56;98784.19;;;38.73;24.29
6194;BME280;3130;41.564;23.280;2023-07-13T12:18:29;98779.88;;;38.72;22.40
6194;BME280;3130;41.564;23.280;2023-07-13T12:20:58;98766.22;;;38.59;21.67
6194;BME280;3130;41.564;23.280;2023-07-13T12:23:31;98782.31;;;38.64;22.86
6194;BME280;3130;41.564;23.280;2023-07-13T12:26:00;98707.69;;;38.13;22.12
6194;BME280;3130;41.564;23.280;2023-07-13T12:28:33;98767.56;;;38.61;23.15
6194;BME280;3130;41.564;23.280;2023-07-13T12:31:02;98776.69;;;38.65;23.01
6194;BME280;3130;41.564;23.280;2023-07-13T12:33:31;98767.03;;;38.69;22.42
6194;BME280;3130;41.564;23.280;2023-07-13T12:36:00;98686.75;;;38.25;22.20
6194;BME280;3130;41.564;23.280;2023-07-13T12:38:31;98775.25;;;38.88;22.33
6194;BME280;3130;41.564;23.280;2023-07-13T12:41:01;98725.22;;;38.58;22.36
6194;BME280;3130;41.564;23.280;2023-07-13T12:43:34;98764.03;;;38.76;23.04
6194;BME280;3130;41.564;23.280;2023-07-13T12:46:17;98753.91;;;38.68;23.77
6194;BME280;3130;41.564;23.280;2023-07-13T12:48:49;98758.03;;;38.94;23.29
6194;BME280;3130;41.564;23.280;2023-07-13T12:51:17;98732.88;;;38.85;23.14
6194;BME280;3130;41.564;23.280;2023-07-13T12:53:57;98728.91;;;38.72;22.89
6194;BME280;3130;41.564;23.280;2023-07-13T12:56:27;98628.63;;;38.05;23.66
6194;BME280;3130;41.564;23.280;2023-07-13T12:58:58;98741.81;;;38.70;23.78
6194;BME280;3130;41.564;23.280;2023-07-13T13:01:31;98746.88;;;38.77;24.29
6194;BME280;3130;41.564;23.280;2023-07-13T13:04:01;98726.25;;;38.72;24.28
6194;BME280;3130;41.564;23.280;2023-07-13T13:06:32;98742.00;;;38.89;23.92
6194;BME280;3130;41.564;23.280;2023-07-13T13:09:03;98705.84;;;38.66;24.48
6194;BME280;3130;41.564;23.280;2023-07-13T13:11:36;98719.72;;;38.83;24.33
6194;BME280;3130;41.564;23.280;2023-07-13T13:14:03;98702.59;;;38.79;24.43
6194;BME280;3130;41.564;23.280;2023-07-13T13:16:32;98632.84;;;38.31;23.85
6194;BME280;3130;41.564;23.280;2023-07-13T13:19:11;98676.34;;;38.66;23.99
6194;BME280;3130;41.564;23.280;2023-07-13T13:21:39;98702.53;;;38.89;24.24
6194;BME280;3130;41.564;23.280;2023-07-13T13:24:11;98723.63;;;39.06;24.01